Time;durP1;ratioP1;P1;durP2;ratioP2;P2;SDS_P1;SDS_P2;PMS_P1;PMS_P2;Temp;Humidity;BMP_temperature;BMP_pressure;BME280_temperature;BME280_humidity;BME280_pressure;Samples;Min_cycle;Max_cycle;Signal;HPM_P1;HPM_P2
2022/10/03 00:00:27;;;;;;;34.13;7.00;;;8.50;99.90;;;;;;5064332;28;20032;-74
2022/10/03 00:03:25;;;;;;;33.30;6.03;;;8.50;99.90;;;;;;5024322;28;20109;-78
2022/10/03 00:06:09;;;;;;;25.57;5.10;;;8.40;99.90;;;;;;5066666;28;20036;-76
2022/10/03 00:08:54;;;;;;;34.70;6.17;;;8.40;99.90;;;;;;5079311;28;20048;-77
2022/10/03 00:11:30;;;;;;;33.57;5.93;;;8.30;99.90;;;;;;5080599;28;20034;-78
2022/10/03 00:13:55;;;;;;;23.80;5.77;;;8.30;99.90;;;;;;5068313;28;20078;-77
2022/10/03 00:16:41;;;;;;;30.10;5.20;;;8.30;99.90;;;;;;5062146;28;20109;-77
2022/10/03 00:19:25;;;;;;;24.07;5.83;;;8.20;99.90;;;;;;5097079;28;20052;-76
2022/10/03 00:22:15;;;;;;;31.07;7.77;;;8.20;99.90;;;;;;5066236;28;20032;-78
2022/10/03 00:24:55;;;;;;;32.07;8.23;;;8.20;99.90;;;;;;5064000;28;20052;-78
2022/10/03 00:27:27;;;;;;;31.93;8.20;;;8.30;99.90;;;;;;5059213;28;20115;-78
2022/10/03 00:29:58;;;;;;;37.57;7.37;;;8.20;99.90;;;;;;5079406;28;20048;-77
2022/10/03 00:32:42;;;;;;;37.87;8.37;;;8.30;99.90;;;;;;5079951;28;20043;-78
2022/10/03 00:35:15;;;;;;;36.23;9.20;;;8.30;99.90;;;;;;5083572;28;20468;-75
2022/10/03 00:37:41;;;;;;;37.10;8.80;;;8.30;99.90;;;;;;5063918;28;20036;-77
2022/10/03 00:40:10;;;;;;;28.57;7.53;;;8.30;99.90;;;;;;5063274;28;20036;-78
2022/10/03 00:43:03;;;;;;;35.50;8.10;;;8.40;99.90;;;;;;5081467;28;20029;-76
2022/10/03 00:45:48;;;;;;;;;;;8.30;99.90;;;;;;5080554;28;20056;-77
2022/10/03 00:48:36;;;;;;;29.17;8.00;;;8.30;99.90;;;;;;5097008;28;20714;-77
2022/10/03 00:51:20;;;;;;;34.53;7.80;;;8.30;99.90;;;;;;5078107;28;20028;-77
2022/10/03 00:54:11;;;;;;;38.30;9.53;;;8.20;99.90;;;;;;5077947;28;20444;-76
2022/10/03 00:56:48;;;;;;;40.90;9.90;;;8.30;99.90;;;;;;5061757;28;20033;-77
2022/10/03 00:59:51;;;;;;;47.17;9.60;;;8.30;99.90;;;;;;5078483;28;20403;-76
2022/10/03 01:02:38;;;;;;;42.95;10.07;;;8.30;99.90;;;;;;5078318;28;20032;-77
2022/10/03 01:05:19;;;;;;;33.10;9.97;;;8.40;99.90;;;;;;5078884;28;20020;-77
2022/10/03 01:08:22;;;;;;;30.70;9.53;;;8.40;99.90;;;;;;5079149;28;20105;-77
2022/10/03 01:11:09;;;;;;;35.77;9.90;;;8.40;99.90;;;;;;5053226;28;20031;-77
2022/10/03 01:13:58;;;;;;;42.60;10.93;;;8.40;99.90;;;;;;5080709;28;20031;-75
2022/10/03 01:16:59;;;;;;;36.17;9.90;;;8.30;99.90;;;;;;5079640;28;20146;-76
2022/10/03 01:19:53;;;;;;;46.33;10.87;;;8.30;99.90;;;;;;5030206;28;20028;-77
2022/10/03 01:22:34;;;;;;;33.10;10.50;;;8.40;99.90;;;;;;5077955;28;20457;-77
2022/10/03 01:25:15;;;;;;;30.30;8.90;;;8.40;99.90;;;;;;5064178;28;20025;-77
2022/10/03 01:30:52;;;;;;;36.07;10.83;;;8.20;99.90;;;;;;5083000;28;20098;-77
2022/10/03 01:33:40;;;;;;;31.33;8.50;;;8.20;99.90;;;;;;5097175;28;20466;-77
2022/10/03 01:36:38;;;;;;;26.37;7.07;;;8.20;99.90;;;;;;5079305;28;20364;-78
2022/10/03 01:39:27;;;;;;;28.60;7.90;;;8.10;99.90;;;;;;4976458;28;20032;-78
2022/10/03 01:42:16;;;;;;;29.23;8.27;;;8.10;99.90;;;;;;5075938;28;20030;-76
2022/10/03 01:45:00;;;;;;;36.70;8.53;;;8.10;99.90;;;;;;5070863;28;20028;-75
2022/10/03 01:47:38;;;;;;;30.53;8.43;;;8.00;99.90;;;;;;5081964;28;20069;-76
2022/10/03 01:50:16;;;;;;;40.13;8.50;;;8.00;99.90;;;;;;5094988;28;20085;-76
2022/10/03 01:52:57;;;;;;;38.13;8.97;;;7.90;99.90;;;;;;5060844;28;20123;-77
2022/10/03 01:55:38;;;;;;;29.67;7.50;;;7.80;99.90;;;;;;5078548;28;20111;-76
2022/10/03 01:58:31;;;;;;;35.87;7.80;;;7.80;99.90;;;;;;5079463;28;20032;-77
2022/10/03 02:01:13;;;;;;;37.60;7.50;;;7.80;99.90;;;;;;5063175;28;20029;-77
2022/10/03 02:03:53;;;;;;;33.47;8.57;;;7.70;99.90;;;;;;5058956;28;20024;-77
2022/10/03 02:06:49;;;;;;;23.57;6.93;;;7.70;99.90;;;;;;5065997;28;20376;-77
2022/10/03 02:09:30;;;;;;;31.03;8.47;;;7.60;99.90;;;;;;5064868;28;20129;-77
2022/10/03 02:12:07;;;;;;;34.73;9.27;;;7.60;99.90;;;;;;5081982;28;20043;-75
2022/10/03 02:14:48;;;;;;;26.10;7.67;;;7.50;99.90;;;;;;5095891;28;20128;-76
2022/10/03 02:17:19;;;;;;;30.80;7.23;;;7.50;99.90;;;;;;5064531;28;20032;-78
2022/10/03 02:20:06;;;;;;;31.40;9.40;;;7.60;99.90;;;;;;5071270;28;20060;-76
2022/10/03 02:22:44;;;;;;;28.80;9.07;;;7.60;99.90;;;;;;5078621;28;20047;-77
2022/10/03 02:25:32;;;;;;;39.77;9.37;;;7.60;99.90;;;;;;5061657;28;20051;-76
2022/10/03 02:28:17;;;;;;;37.53;8.30;;;7.50;99.90;;;;;;5077621;28;20028;-76
2022/10/03 02:30:46;;;;;;;34.53;10.37;;;7.50;99.90;;;;;;5078308;28;20028;-77
2022/10/03 02:33:32;;;;;;;22.33;8.63;;;7.40;99.90;;;;;;5062323;28;20349;-76
2022/10/03 02:36:17;;;;;;;26.43;7.93;;;7.50;99.90;;;;;;5078734;28;20028;-77
2022/10/03 02:39:11;;;;;;;35.97;8.30;;;7.50;99.90;;;;;;5074717;28;20039;-78
2022/10/03 02:42:24;;;;;;;34.87;8.67;;;7.50;99.90;;;;;;5059610;28;20032;-77
2022/10/03 02:45:08;;;;;;;29.48;8.25;;;7.50;99.90;;;;;;5042361;28;20149;-77
2022/10/03 02:48:03;;;;;;;26.57;7.20;;;7.40;99.90;;;;;;5077828;28;20039;-77
2022/10/03 02:50:38;;;;;;;24.67;7.23;;;7.30;99.90;;;;;;5075883;28;20117;-78
2022/10/03 02:53:34;;;;;;;29.40;7.87;;;7.30;99.90;;;;;;5067241;28;20028;-76
2022/10/03 02:56:18;;;;;;;22.53;7.53;;;7.20;99.90;;;;;;5076131;28;20031;-76
2022/10/03 02:59:13;;;;;;;36.13;8.70;;;7.20;99.90;;;;;;5067829;28;20066;-76
2022/10/03 03:01:41;;;;;;;23.17;6.93;;;7.10;99.90;;;;;;5077726;28;20039;-78
2022/10/03 03:04:28;;;;;;;33.37;6.93;;;7.00;99.90;;;;;;5065857;28;20035;-77
2022/10/03 03:07:20;;;;;;;27.47;7.17;;;7.00;99.90;;;;;;5063478;28;20059;-76
2022/10/03 03:10:21;;;;;;;34.80;7.90;;;7.00;99.90;;;;;;5078410;28;20047;-76
2022/10/03 03:13:25;;;;;;;32.00;7.87;;;6.90;99.90;;;;;;5063604;28;20038;-78
2022/10/03 03:16:24;;;;;;;21.37;8.83;;;6.90;99.90;;;;;;5078020;28;20024;-76
2022/10/03 03:19:37;;;;;;;33.90;8.77;;;6.80;99.90;;;;;;5076759;28;20032;-78
2022/10/03 03:22:09;;;;;;;28.90;7.73;;;6.80;99.90;;;;;;5093153;28;20469;-76
2022/10/03 03:24:57;;;;;;;27.83;8.40;;;6.80;99.90;;;;;;5063169;28;20396;-76
2022/10/03 03:27:47;;;;;;;37.83;10.23;;;6.80;99.90;;;;;;5072095;28;20024;-77
2022/10/03 03:30:17;;;;;;;29.90;8.37;;;6.80;99.90;;;;;;5098591;28;20413;-76
2022/10/03 03:33:01;;;;;;;28.23;8.13;;;6.70;99.90;;;;;;5096001;28;20028;-77
2022/10/03 03:35:27;;;;;;;28.73;7.80;;;6.70;99.90;;;;;;5063090;28;20059;-77
2022/10/03 03:38:19;;;;;;;27.20;8.43;;;6.60;99.90;;;;;;5063907;28;20429;-77
2022/10/03 03:41:02;;;;;;;32.83;8.10;;;6.60;99.90;;;;;;5082000;28;20027;-75
2022/10/03 03:43:46;;;;;;;31.03;8.53;;;6.60;99.90;;;;;;5080455;28;20148;-76
2022/10/03 03:46:44;;;;;;;29.97;8.97;;;6.60;99.90;;;;;;5079650;28;20029;-77
2022/10/03 03:49:57;;;;;;;33.50;9.03;;;6.60;99.90;;;;;;5028453;28;20058;-76
2022/10/03 03:52:49;;;;;;;30.83;8.40;;;6.60;99.90;;;;;;5051363;28;20025;-77
2022/10/03 03:55:47;;;;;;;32.30;9.03;;;6.60;99.90;;;;;;5068569;28;20032;-76
2022/10/03 03:58:31;;;;;;;30.00;8.73;;;6.50;99.90;;;;;;5048472;28;20032;-76
2022/10/03 04:01:17;;;;;;;28.80;8.60;;;6.50;99.90;;;;;;5080149;28;20053;-77
2022/10/03 04:04:05;;;;;;;23.53;7.67;;;6.50;99.90;;;;;;5064460;28;20021;-77
2022/10/03 04:06:55;;;;;;;30.63;8.83;;;6.50;99.90;;;;;;5079374;28;20028;-76
2022/10/03 04:09:26;;;;;;;30.97;7.67;;;6.50;99.90;;;;;;5095557;28;20020;-77
2022/10/03 04:11:56;;;;;;;26.50;8.37;;;6.40;99.90;;;;;;5067388;28;20020;-77
2022/10/03 04:14:51;;;;;;;38.07;9.97;;;6.40;99.90;;;;;;5080640;28;20110;-77
2022/10/03 04:20:42;;;;;;;26.33;8.50;;;6.40;99.90;;;;;;5083906;28;20054;-76
2022/10/03 04:23:42;;;;;;;18.83;7.37;;;6.40;99.90;;;;;;5064579;28;20588;-77
2022/10/03 04:26:42;;;;;;;30.50;7.90;;;6.40;99.90;;;;;;5066416;28;20035;-77
2022/10/03 04:29:39;;;;;;;21.67;7.30;;;6.40;99.90;;;;;;5098209;28;20024;-76
2022/10/03 04:32:17;;;;;;;20.37;7.00;;;6.40;99.90;;;;;;5067293;28;20028;-77
2022/10/03 04:34:54;;;;;;;28.80;7.63;;;6.40;99.90;;;;;;5083389;28;20031;-77
2022/10/03 04:37:30;;;;;;;32.60;8.07;;;6.40;99.90;;;;;;5097187;28;20024;-78
2022/10/03 04:40:17;;;;;;;28.10;8.43;;;6.40;99.90;;;;;;5079130;28;20028;-77
2022/10/03 04:42:42;;;;;;;34.13;9.13;;;6.40;99.90;;;;;;5060790;28;20028;-77
2022/10/03 04:45:34;;;;;;;30.23;9.47;;;6.40;99.90;;;;;;5065084;28;20543;-76
2022/10/03 04:48:19;;;;;;;27.43;8.20;;;6.50;99.90;;;;;;5062963;28;20040;-77
2022/10/03 04:51:07;;;;;;;22.57;7.90;;;6.50;99.90;;;;;;5072544;28;20024;-75
2022/10/03 04:54:01;;;;;;;32.30;8.33;;;6.50;99.90;;;;;;5066568;28;20530;-76
2022/10/03 04:56:50;;;;;;;24.80;7.77;;;6.50;99.90;;;;;;5063464;28;20024;-77
2022/10/03 04:59:42;;;;;;;29.40;8.60;;;6.60;99.90;;;;;;5081555;28;20020;-77
2022/10/03 05:02:35;;;;;;;18.53;7.57;;;6.80;99.90;;;;;;5070482;28;20447;-77
2022/10/03 05:05:23;;;;;;;39.10;8.07;;;6.90;99.90;;;;;;5079342;28;20024;-77
2022/10/03 05:08:04;;;;;;;25.43;9.07;;;7.00;99.90;;;;;;5062444;28;20028;-77
2022/10/03 05:10:50;;;;;;;19.07;7.80;;;7.00;99.90;;;;;;5094179;28;20107;-77
2022/10/03 05:13:37;;;;;;;21.03;7.60;;;7.00;99.90;;;;;;5048000;28;20475;-77
2022/10/03 05:16:30;;;;;;;26.10;7.67;;;7.10;99.90;;;;;;5060679;28;20056;-76
2022/10/03 05:19:19;;;;;;;28.13;8.27;;;7.00;99.90;;;;;;5094812;28;20602;-77
2022/10/03 05:21:48;;;;;;;23.77;8.03;;;6.80;99.90;;;;;;5079115;28;20036;-77
2022/10/03 05:24:22;;;;;;;27.77;8.10;;;6.70;99.90;;;;;;5080305;28;20103;-77
2022/10/03 05:27:18;;;;;;;27.27;8.30;;;6.70;99.90;;;;;;5069186;28;20713;-78
2022/10/03 05:30:24;;;;;;;28.67;7.60;;;6.60;99.90;;;;;;5096417;28;20016;-76
2022/10/03 05:32:52;;;;;;;25.23;8.73;;;6.60;99.90;;;;;;5062588;28;20449;-76
2022/10/03 05:35:21;;;;;;;30.03;7.47;;;6.50;99.90;;;;;;5062119;28;20034;-76
2022/10/03 05:38:14;;;;;;;23.43;8.03;;;6.50;99.90;;;;;;5076425;28;20044;-75
2022/10/03 05:40:47;;;;;;;21.80;8.50;;;6.50;99.90;;;;;;5066150;28;20594;-75
2022/10/03 05:43:18;;;;;;;31.53;9.67;;;6.40;99.90;;;;;;5094898;28;20039;-78
2022/10/03 05:45:54;;;;;;;24.70;7.97;;;6.50;99.90;;;;;;5080506;28;20024;-77
2022/10/03 05:48:42;;;;;;;34.23;9.70;;;6.40;99.90;;;;;;5082806;28;20035;-76
2022/10/03 05:51:12;;;;;;;24.23;8.87;;;6.50;99.90;;;;;;5076919;28;20032;-77
2022/10/03 05:54:05;;;;;;;21.60;8.57;;;6.50;99.90;;;;;;5059372;28;20602;-77
2022/10/03 05:56:36;;;;;;;;;;;6.50;99.90;;;;;;5078922;28;20058;-77
2022/10/03 05:59:27;;;;;;;25.90;9.60;;;6.50;99.90;;;;;;5068667;28;19908;-75
2022/10/03 06:02:34;;;;;;;26.00;9.87;;;6.50;99.90;;;;;;5080353;28;20024;-77
2022/10/03 06:05:22;;;;;;;31.30;10.20;;;6.60;99.90;;;;;;5069484;28;20048;-77
2022/10/03 06:08:16;;;;;;;25.17;9.20;;;6.70;99.90;;;;;;5062230;28;20016;-77
2022/10/03 06:10:44;;;;;;;24.53;8.83;;;7.00;99.90;;;;;;5078134;28;20024;-78
2022/10/03 06:13:33;;;;;;;19.03;8.57;;;7.20;99.90;;;;;;5063106;28;20031;-75
2022/10/03 06:16:13;;;;;;;32.13;9.97;;;7.30;99.90;;;;;;5069490;28;20387;-77
2022/10/03 06:18:57;;;;;;;27.47;8.70;;;7.40;99.90;;;;;;5076366;28;20037;-77
2022/10/03 06:21:51;;;;;;;41.77;9.93;;;7.50;99.90;;;;;;5076919;28;21686;-77
2022/10/03 06:24:37;;;;;;;23.40;9.50;;;7.60;99.90;;;;;;5080008;28;20560;-77
2022/10/03 06:27:39;;;;;;;23.00;8.73;;;7.80;99.90;;;;;;5079674;28;20025;-77
2022/10/03 06:30:30;;;;;;;24.90;8.30;;;7.90;99.90;;;;;;5060411;28;20028;-78
2022/10/03 06:33:02;;;;;;;20.20;7.37;;;8.10;99.90;;;;;;5076937;28;20036;-78
2022/10/03 06:36:01;;;;;;;30.00;9.02;;;8.30;99.90;;;;;;5079119;28;20099;-76
2022/10/03 06:38:44;;;;;;;27.80;9.10;;;8.50;99.90;;;;;;5078967;28;20028;-77
2022/10/03 06:41:28;;;;;;;;;;;8.70;99.90;;;;;;5062783;28;20034;-77
2022/10/03 06:44:21;;;;;;;22.87;8.37;;;8.90;99.90;;;;;;5070049;28;20577;-77
2022/10/03 06:47:18;;;;;;;30.03;8.87;;;9.10;99.90;;;;;;5097077;28;20024;-78
2022/10/03 06:50:17;;;;;;;32.87;9.83;;;9.30;99.90;;;;;;5061493;28;20020;-77
2022/10/03 06:52:59;;;;;;;28.33;10.20;;;9.40;99.90;;;;;;5079649;28;20092;-76
2022/10/03 06:55:49;;;;;;;28.63;9.87;;;9.40;99.90;;;;;;5070542;28;20102;-77
2022/10/03 06:58:39;;;;;;;26.80;11.03;;;9.50;99.90;;;;;;5080814;28;20108;-77
2022/10/03 07:01:13;;;;;;;28.07;11.33;;;9.70;99.90;;;;;;5083249;28;20023;-78
2022/10/03 07:03:54;;;;;;;29.60;10.23;;;9.90;99.90;;;;;;5081748;28;20480;-77
2022/10/03 07:06:22;;;;;;;32.07;10.87;;;9.90;99.90;;;;;;5066629;28;20452;-78
2022/10/03 07:09:48;;;;;;;29.53;12.80;;;9.90;99.90;;;;;;5066942;28;20459;-77
2022/10/03 07:12:32;;;;;;;35.13;12.33;;;10.00;99.90;;;;;;4994321;28;20030;-76
2022/10/03 07:15:13;;;;;;;27.70;12.53;;;10.00;99.90;;;;;;4995295;28;20050;-76
2022/10/03 07:17:54;;;;;;;33.70;14.10;;;10.00;99.90;;;;;;4995379;28;20061;-77
2022/10/03 07:21:10;;;;;;;36.20;14.80;;;10.10;99.90;;;;;;5010691;28;20037;-77
2022/10/03 07:23:35;;;;;;;36.23;13.73;;;10.10;99.90;;;;;;5011279;28;20128;-77
2022/10/03 07:26:25;;;;;;;40.87;15.80;;;10.20;99.90;;;;;;4997307;28;20038;-77
2022/10/03 07:29:07;;;;;;;35.27;15.30;;;10.30;99.90;;;;;;4996261;28;20041;-78
2022/10/03 07:31:41;;;;;;;44.10;14.50;;;10.50;99.90;;;;;;4995517;28;20057;-77
2022/10/03 07:34:38;;;;;;;38.03;13.37;;;10.70;99.90;;;;;;5011570;28;20026;-77
2022/10/03 07:40:13;;;;;;;38.67;13.30;;;11.30;99.90;;;;;;5011683;28;20049;-78
2022/10/03 07:42:56;;;;;;;33.37;13.23;;;11.60;99.90;;;;;;5034313;28;20055;-78
2022/10/03 07:45:38;;;;;;;35.77;12.33;;;11.90;99.90;;;;;;5086064;28;20028;-77
2022/10/03 07:48:24;;;;;;;24.17;10.80;;;12.00;99.90;;;;;;5065886;28;20041;-76
2022/10/03 07:51:08;;;;;;;24.43;9.77;;;12.30;99.90;;;;;;5083523;28;20036;-78
2022/10/03 07:54:03;;;;;;;31.23;11.70;;;12.30;99.90;;;;;;5081232;28;20027;-78
2022/10/03 07:56:49;;;;;;;27.50;10.57;;;12.50;99.90;;;;;;5101102;28;20056;-78
2022/10/03 07:59:23;;;;;;;28.17;9.20;;;12.40;99.90;;;;;;5081890;28;20108;-78
2022/10/03 08:01:57;;;;;;;31.23;9.30;;;12.30;99.90;;;;;;5082498;28;20467;-77
2022/10/03 08:04:57;;;;;;;33.37;9.83;;;12.20;99.90;;;;;;5065875;28;20020;-78
2022/10/03 08:07:44;;;;;;;34.27;10.40;;;12.10;99.90;;;;;;5066146;28;20021;-78
2022/10/03 08:10:59;;;;;;;36.30;11.07;;;12.00;99.90;;;;;;5097730;28;20089;-78
2022/10/03 08:13:43;;;;;;;41.73;11.97;;;11.90;99.90;;;;;;5064354;28;20024;-77
2022/10/03 08:16:26;;;;;;;32.50;10.90;;;11.90;99.90;;;;;;5069487;28;20119;-77
2022/10/03 08:19:13;;;;;;;28.00;10.70;;;12.00;99.90;;;;;;5082184;28;20032;-78
2022/10/03 08:21:57;;;;;;;31.33;10.90;;;12.10;99.90;;;;;;5081937;28;20028;-77
2022/10/03 08:24:34;;;;;;;32.80;10.97;;;12.30;99.90;;;;;;5079676;28;20054;-77
2022/10/03 08:27:15;;;;;;;27.50;10.93;;;12.60;99.90;;;;;;5069293;28;20466;-78
2022/10/03 08:30:03;;;;;;;31.60;9.93;;;12.80;99.90;;;;;;5081418;28;20020;-77
2022/10/03 08:32:44;;;;;;;39.13;9.53;;;13.00;99.90;;;;;;5098915;28;20029;-78
2022/10/03 08:35:52;;;;;;;26.40;9.83;;;13.10;99.90;;;;;;5096675;28;20035;-77
2022/10/03 08:38:47;;;;;;;27.87;10.43;;;13.30;99.90;;;;;;5059154;28;20379;-77
2022/10/03 08:41:21;;;;;;;31.17;10.20;;;13.40;99.90;;;;;;5082545;28;20024;-77
2022/10/03 08:44:08;;;;;;;31.57;10.50;;;13.70;99.90;;;;;;5074042;28;20025;-78
2022/10/03 08:46:46;;;;;;;26.10;8.32;;;14.00;99.90;;;;;;5068546;28;20028;-78
2022/10/03 08:49:50;;;;;;;25.88;7.68;;;14.20;99.90;;;;;;5067819;28;20367;-77
2022/10/03 08:52:41;;;;;;;27.45;7.28;;;14.40;99.90;;;;;;5032874;28;20123;-77
2022/10/03 08:55:29;;;;;;;27.27;7.80;;;14.70;99.90;;;;;;5073935;28;20024;-76
2022/10/03 08:58:14;;;;;;;29.35;8.30;;;14.80;99.90;;;;;;5071434;28;20037;-78
2022/10/03 09:01:11;;;;;;;20.70;8.00;;;14.50;99.90;;;;;;5073836;28;20109;-78
2022/10/03 09:03:52;;;;;;;23.33;8.23;;;14.40;99.90;;;;;;5065527;28;20217;-77
2022/10/03 09:06:37;;;;;;;19.55;7.13;;;14.30;99.90;;;;;;5067219;28;20043;-78
2022/10/03 09:09:15;;;;;;;27.38;6.88;;;14.30;99.90;;;;;;5096474;28;20032;-79
2022/10/03 09:11:43;;;;;;;26.70;6.85;;;14.20;99.90;;;;;;5065982;28;20012;-78
2022/10/03 09:14:28;;;;;;;22.05;6.20;;;14.10;99.90;;;;;;5080314;28;20020;-78
2022/10/03 09:17:00;;;;;;;24.85;5.72;;;14.10;99.90;;;;;;5095830;28;20036;-78
2022/10/03 09:19:58;;;;;;;24.27;6.25;;;14.00;99.90;;;;;;5064881;28;20040;-77
2022/10/03 09:22:51;;;;;;;22.42;5.70;;;13.90;99.90;;;;;;5066189;28;20040;-78
2022/10/03 09:25:23;;;;;;;21.15;4.30;;;13.90;99.90;;;;;;5068748;28;20024;-76
2022/10/03 09:27:51;;;;;;;21.10;4.93;;;14.00;99.90;;;;;;5080020;28;20036;-76
2022/10/03 09:30:31;;;;;;;19.65;4.70;;;14.10;99.90;;;;;;5079780;28;20086;-77
2022/10/03 09:33:18;;;;;;;25.60;5.93;;;14.30;99.90;;;;;;5078840;28;20032;-77
2022/10/03 09:36:10;;;;;;;20.67;4.45;;;14.40;99.90;;;;;;5062619;28;20104;-76
2022/10/03 09:38:42;;;;;;;21.05;4.55;;;14.50;99.90;;;;;;5070232;28;20474;-78
2022/10/03 09:41:29;;;;;;;18.98;4.85;;;14.50;99.90;;;;;;5079481;28;20055;-77
2022/10/03 09:44:16;;;;;;;15.48;4.95;;;14.40;99.90;;;;;;5075193;28;20047;-77
2022/10/03 09:47:27;;;;;;;24.10;5.25;;;14.30;99.90;;;;;;5061258;28;20028;-76
2022/10/03 09:49:58;;;;;;;19.48;4.88;;;14.40;99.90;;;;;;5064217;28;20047;-78
2022/10/03 09:53:18;;;;;;;23.00;4.80;;;14.50;99.90;;;;;;5079622;28;20032;-74
2022/10/03 09:56:18;;;;;;;18.45;4.32;;;14.60;99.90;;;;;;5093073;28;20285;-78
2022/10/03 09:59:17;;;;;;;16.88;4.28;;;14.80;99.90;;;;;;5062030;28;20121;-78
2022/10/03 10:01:42;;;;;;;16.77;3.22;;;15.10;99.90;;;;;;5046235;28;20394;-77
2022/10/03 10:04:23;;;;;;;19.02;4.68;;;15.20;99.90;;;;;;5076513;28;20035;-76
2022/10/03 10:07:11;;;;;;;15.68;3.95;;;15.30;99.90;;;;;;5066847;28;20468;-77
2022/10/03 10:10:00;;;;;;;20.58;4.00;;;15.40;99.90;;;;;;5092149;28;20029;-77
2022/10/03 10:12:51;;;;;;;13.68;3.08;;;15.80;99.90;;;;;;5041569;28;20583;-77
2022/10/03 10:15:20;;;;;;;16.85;3.17;;;15.90;99.90;;;;;;5059737;28;20021;-78
2022/10/03 10:18:01;;;;;;;15.63;2.70;;;16.10;99.90;;;;;;5076595;28;20125;-77
2022/10/03 10:20:44;;;;;;;14.18;3.40;;;16.20;99.90;;;;;;5092787;28;20032;-77
2022/10/03 10:23:24;;;;;;;13.95;2.65;;;16.40;99.90;;;;;;5092826;28;20040;-77
2022/10/03 10:26:28;;;;;;;14.25;2.50;;;16.40;99.90;;;;;;5077713;28;20021;-78
2022/10/03 10:29:30;;;;;;;15.48;2.70;;;16.60;99.90;;;;;;5068271;28;20020;-76
2022/10/03 10:32:14;;;;;;;8.98;2.05;;;16.50;99.90;;;;;;5034448;28;20158;-76
2022/10/03 10:35:01;;;;;;;13.20;2.60;;;16.20;99.90;;;;;;5080263;28;20174;-76
2022/10/03 10:38:06;;;;;;;12.15;2.60;;;15.90;99.90;;;;;;5084252;28;20039;-77
2022/10/03 10:40:55;;;;;;;14.48;3.13;;;15.90;99.90;;;;;;5098630;28;20047;-76
2022/10/03 10:44:05;;;;;;;13.95;2.10;;;16.10;99.90;;;;;;5083519;28;20138;-76
2022/10/03 10:46:37;;;;;;;13.23;2.45;;;16.50;99.90;;;;;;5081777;28;20032;-75
2022/10/03 10:49:40;;;;;;;9.40;2.55;;;17.00;99.90;;;;;;5096286;28;20054;-76
2022/10/03 10:52:24;;;;;;;;;;;17.60;99.90;;;;;;5070651;28;20347;-75
2022/10/03 10:55:09;;;;;;;12.75;2.45;;;17.80;99.90;;;;;;5082997;28;19913;-76
2022/10/03 10:57:40;;;;;;;8.98;1.85;;;17.60;99.90;;;;;;5080312;28;20084;-77
2022/10/03 11:00:25;;;;;;;6.47;1.33;;;17.40;99.90;;;;;;5080071;28;20024;-76
2022/10/03 11:02:59;;;;;;;11.45;3.20;;;17.10;99.90;;;;;;5078432;28;20032;-76
2022/10/03 11:05:28;;;;;;;11.18;1.50;;;17.00;99.90;;;;;;5083006;28;20092;-77
2022/10/03 11:08:15;;;;;;;9.82;2.03;;;16.80;99.90;;;;;;5068812;28;20032;-77
2022/10/03 11:11:01;;;;;;;11.98;2.17;;;17.00;99.90;;;;;;5086501;28;20032;-76
2022/10/03 11:14:08;;;;;;;12.95;2.30;;;17.20;99.90;;;;;;5080748;28;20032;-77
2022/10/03 11:16:53;;;;;;;15.02;2.30;;;17.30;99.90;;;;;;5043116;28;20037;-76
2022/10/03 11:19:42;;;;;;;8.35;1.80;;;17.30;99.90;;;;;;5083538;28;20017;-76
2022/10/03 11:22:23;;;;;;;11.52;2.20;;;17.50;99.90;;;;;;5061851;28;20119;-77
2022/10/03 11:25:52;;;;;;;12.43;2.47;;;17.70;99.90;;;;;;5080131;28;20441;-77
2022/10/03 11:28:55;;;;;;;10.73;2.30;;;18.20;99.90;;;;;;5081018;28;20027;-77
2022/10/03 11:31:42;;;;;;;11.63;2.15;;;18.40;99.90;;;;;;5072111;28;20028;-75
2022/10/03 11:34:36;;;;;;;9.35;1.77;;;18.60;99.90;;;;;;5065181;28;20021;-77
2022/10/03 11:37:20;;;;;;;9.75;2.08;;;18.20;99.90;;;;;;5052455;28;20063;-76
2022/10/03 11:39:57;;;;;;;10.55;2.13;;;18.10;99.90;;;;;;5063228;28;20040;-76
2022/10/03 11:42:49;;;;;;;10.20;1.58;;;18.00;99.90;;;;;;5095467;28;20024;-76
2022/10/03 11:45:41;;;;;;;9.50;1.90;;;18.00;99.90;;;;;;5058676;28;20685;-75
2022/10/03 11:48:33;;;;;;;10.90;1.55;;;17.80;99.90;;;;;;5077545;28;20036;-75
2022/10/03 11:51:09;;;;;;;12.98;2.00;;;17.70;99.90;;;;;;5077079;28;20097;-74
2022/10/03 11:53:42;;;;;;;5.32;1.55;;;17.60;99.90;;;;;;5059669;28;20040;-75
2022/10/03 11:56:25;;;;;;;11.98;1.90;;;17.70;99.90;;;;;;5080330;28;20063;-77
2022/10/03 11:59:11;;;;;;;12.73;1.85;;;17.90;99.90;;;;;;5080176;28;20036;-77
2022/10/03 12:02:01;;;;;;;6.50;1.50;;;18.00;99.90;;;;;;5071988;28;20046;-77
2022/10/03 12:04:54;;;;;;;9.65;1.83;;;18.00;99.90;;;;;;5078423;28;20029;-76
2022/10/03 12:10:38;;;;;;;8.80;1.60;;;18.30;99.90;;;;;;5079326;28;20471;-77
2022/10/03 12:13:13;;;;;;;10.32;1.90;;;18.40;99.90;;;;;;5044244;28;20028;-77
2022/10/03 12:15:42;;;;;;;8.93;1.30;;;18.80;99.90;;;;;;5067470;28;20081;-77
2022/10/03 12:18:30;;;;;;;9.65;1.40;;;18.70;99.90;;;;;;5079823;28;20070;-78
2022/10/03 12:21:09;;;;;;;6.00;1.55;;;19.20;99.90;;;;;;5063527;28;20024;-78
2022/10/03 12:24:00;;;;;;;4.75;1.23;;;19.60;99.90;;;;;;5083246;28;20719;-79
2022/10/03 12:26:48;;;;;;;5.55;1.52;;;19.90;99.90;;;;;;5076764;28;21652;-78
2022/10/03 12:29:18;;;;;;;7.50;1.13;;;20.30;99.90;;;;;;5069381;28;20453;-78
2022/10/03 12:32:09;;;;;;;4.90;1.15;;;19.90;99.50;;;;;;5062712;28;20567;-78
2022/10/03 12:35:07;;;;;;;4.57;1.03;;;19.70;99.10;;;;;;5043461;28;20532;-77
2022/10/03 12:37:56;;;;;;;7.00;1.23;;;19.40;99.00;;;;;;5078021;28;20031;-77
2022/10/03 12:40:38;;;;;;;8.18;1.30;;;19.40;99.90;;;;;;5080550;28;20028;-76
2022/10/03 12:43:28;;;;;;;9.07;1.23;;;19.50;99.90;;;;;;5062182;28;20456;-78
2022/10/03 12:46:12;;;;;;;10.68;1.95;;;19.30;98.80;;;;;;5063322;28;20036;-77
2022/10/03 12:49:04;;;;;;;8.95;1.25;;;19.20;99.90;;;;;;5063612;28;20024;-77
2022/10/03 12:51:48;;;;;;;9.23;1.77;;;19.20;99.90;;;;;;5078503;28;20134;-77
2022/10/03 12:54:42;;;;;;;6.78;1.58;;;19.30;99.90;;;;;;5081197;28;20038;-77
2022/10/03 12:57:25;;;;;;;8.52;1.55;;;19.00;99.90;;;;;;5070094;28;20031;-78
2022/10/03 13:00:39;;;;;;;6.82;1.33;;;19.30;99.90;;;;;;5063466;28;20031;-77
2022/10/03 13:03:19;;;;;;;10.73;2.28;;;20.60;97.00;;;;;;5057410;28;20048;-77
2022/10/03 13:06:15;;;;;;;6.70;1.00;;;22.00;95.70;;;;;;5080286;28;20097;-76
2022/10/03 13:08:51;;;;;;;4.57;1.20;;;22.80;91.50;;;;;;5096056;28;20024;-79
2022/10/03 13:11:29;;;;;;;6.32;2.28;;;22.60;89.50;;;;;;5065172;28;20480;-76
2022/10/03 13:14:22;;;;;;;6.25;1.58;;;22.50;88.20;;;;;;5079240;28;20048;-77
2022/10/03 13:17:11;;;;;;;6.68;1.08;;;22.40;87.50;;;;;;5097964;28;20028;-76
2022/10/03 13:20:05;;;;;;;7.70;1.50;;;22.70;87.80;;;;;;5095369;28;20047;-77
2022/10/03 13:22:47;;;;;;;4.75;1.25;;;23.20;86.80;;;;;;5079686;28;20024;-77
2022/10/03 13:25:21;;;;;;;5.43;1.30;;;23.00;84.40;;;;;;5064502;28;20031;-77
2022/10/03 13:27:51;;;;;;;4.57;1.40;;;22.60;85.20;;;;;;5096916;28;20024;-77
2022/10/03 13:30:24;;;;;;;9.38;1.70;;;22.00;86.80;;;;;;5078518;28;20040;-77
2022/10/03 13:32:58;;;;;;;8.18;1.20;;;21.70;88.60;;;;;;5092088;28;20035;-77
2022/10/03 13:36:01;;;;;;;6.55;1.30;;;21.20;88.10;;;;;;5078059;28;20636;-78
2022/10/03 13:38:38;;;;;;;11.77;1.20;;;20.50;91.50;;;;;;5061843;28;20078;-76
2022/10/03 13:41:32;;;;;;;7.05;1.10;;;20.30;92.90;;;;;;5079510;28;20029;-78
2022/10/03 13:44:06;;;;;;;9.27;1.75;;;19.80;93.40;;;;;;5093233;28;20024;-77
2022/10/03 13:47:01;;;;;;;5.38;1.00;;;19.20;93.60;;;;;;5094357;28;20036;-79
2022/10/03 13:49:47;;;;;;;7.40;1.40;;;19.00;94.90;;;;;;5016754;28;20040;-75
2022/10/03 13:52:32;;;;;;;9.15;1.48;;;19.50;95.50;;;;;;5094464;28;20028;-76
2022/10/03 13:55:20;;;;;;;8.77;1.10;;;19.80;94.50;;;;;;5077276;28;20037;-76
2022/10/03 13:58:10;;;;;;;6.40;1.27;;;20.70;93.40;;;;;;5078432;28;20836;-77
2022/10/03 14:00:45;;;;;;;2.22;0.77;;;20.90;91.20;;;;;;5092807;28;20242;-77
2022/10/03 14:03:32;;;;;;;6.28;1.00;;;21.50;90.80;;;;;;5076294;28;20037;-76
2022/10/03 14:06:23;;;;;;;5.00;0.90;;;21.50;88.70;;;;;;5066903;28;20189;-76
2022/10/03 14:09:09;;;;;;;4.35;1.40;;;21.20;89.40;;;;;;5062270;28;20159;-78
2022/10/03 14:11:52;;;;;;;6.18;1.00;;;20.50;90.90;;;;;;5060724;28;20460;-78
2022/10/03 14:14:33;;;;;;;5.13;0.90;;;20.70;91.20;;;;;;5078103;28;21582;-79
2022/10/03 14:17:24;;;;;;;5.35;1.08;;;21.30;89.70;;;;;;5064094;28;20036;-77
2022/10/03 14:20:17;;;;;;;4.53;1.20;;;21.60;84.90;;;;;;5077700;28;20028;-77
2022/10/03 14:22:49;;;;;;;4.80;1.00;;;20.70;86.90;;;;;;5066234;28;21875;-77
2022/10/03 14:25:23;;;;;;;8.52;1.73;;;19.70;90.30;;;;;;5077895;28;20104;-78
2022/10/03 14:28:16;;;;;;;10.25;1.45;;;19.20;91.50;;;;;;5073736;28;20029;-77
2022/10/03 14:31:17;;;;;;;5.32;1.25;;;18.80;92.90;;;;;;5060039;28;20102;-77